Burry Port, United Kingdom
Current Conditions -  °F | °C
As of 11:50 PM on Saturday 20 Dec 2014 (Local Time) from EGOP Reporting Station
Broken Clouds Broken Clouds  
Wind Chill: 39°   Ceiling: 2200
Heat Index: 46°   Visibility: 6mi
Dew Point: 45°   Wind: 21mph
Humidity: 93%   Direction: 260°W
Pressure: 30.48"   Gusts: NA
Location:  51.68°N, 4.25°W
Report Text: EGOP 202350Z AUTO 26018KT 9999 // FEW014/// BKN022/// 08/07 Q1032
Loading
Personal Weather Stations






























Interactive Weather Map New forecast layout! Learn more

10-Day Weather Forecast

Advertisements
Track Severe Weather on mobile